Time;durP1;ratioP1;P1;durP2;ratioP2;P2;SDS_P1;SDS_P2;PMS_P1;PMS_P2;Temp;Humidity;BMP_temperature;BMP_pressure;BME280_temperature;BME280_humidity;BME280_pressure;Samples;Min_cycle;Max_cycle;Signal;HPM_P1;HPM_P2
2021/04/24 00:00:25;;;;;;;3.47;3.17;;;8.20;80.50;;;;;;5044182;28;20478;-80
2021/04/24 00:02:52;;;;;;;8.73;6.03;;;8.40;99.90;;;;;;5043527;28;20482;-82
2021/04/24 00:05:22;;;;;;;5.73;3.33;;;8.00;81.80;;;;;;5044134;28;20450;-80
2021/04/24 00:07:49;;;;;;;2.90;2.43;;;8.00;82.30;;;;;;5044541;28;20961;-82
2021/04/24 00:10:16;;;;;;;6.47;3.67;;;7.90;82.50;;;;;;5044386;28;20524;-82
2021/04/24 00:12:44;;;;;;;5.70;3.00;;;7.90;83.20;;;;;;5052094;28;20466;-81
2021/04/24 00:15:13;;;;;;;3.73;2.57;;;7.80;82.70;;;;;;5057999;28;20441;-82
2021/04/24 00:17:41;;;;;;;3.27;2.97;;;7.50;99.90;;;;;;5058872;28;20426;-81
2021/04/24 00:20:13;;;;;;;4.40;2.67;;;7.80;82.50;;;;;;5057925;28;20450;-81
2021/04/24 00:22:39;;;;;;;2.50;2.30;;;7.70;82.50;;;;;;5056381;28;20478;-81
2021/04/24 00:25:10;;;;;;;5.15;2.50;;;7.80;99.90;;;;;;5058424;28;20231;-81
2021/04/24 00:27:36;;;;;;;4.60;3.30;;;7.90;99.90;;;;;;5059092;28;20196;-82
2021/04/24 00:30:04;;;;;;;4.10;2.63;;;7.70;84.90;;;;;;5059071;28;20477;-82
2021/04/24 00:32:31;;;;;;;5.00;2.90;;;7.90;99.90;;;;;;5053318;28;20215;-81
2021/04/24 00:34:57;;;;;;;8.37;2.63;;;7.20;99.90;;;;;;5047611;28;20212;-81
2021/04/24 00:37:23;;;;;;;3.57;2.50;;;7.40;88.60;;;;;;5057521;28;20442;-80
2021/04/24 00:39:50;;;;;;;7.03;3.13;;;7.60;90.00;;;;;;5046269;28;21020;-81
2021/04/24 00:42:16;;;;;;;4.75;2.97;;;7.70;90.40;;;;;;5042448;28;20481;-83
2021/04/24 00:44:46;;;;;;;7.53;3.17;;;7.40;99.90;;;;;;5051188;28;20200;-80
2021/04/24 00:47:13;;;;;;;5.32;3.30;;;7.50;93.30;;;;;;5052056;28;20199;-80
2021/04/24 00:49:39;;;;;;;4.73;2.90;;;6.70;94.40;;;;;;5042226;28;20259;-80
2021/04/24 00:52:06;;;;;;;4.30;3.00;;;7.30;95.90;;;;;;5042179;28;20857;-81
2021/04/24 00:54:32;;;;;;;6.43;2.50;;;7.40;97.20;;;;;;5041017;28;20789;-81
2021/04/24 00:56:58;;;;;;;3.33;2.33;;;7.50;99.90;;;;;;5041167;28;20454;-81
2021/04/24 00:59:25;;;;;;;10.20;3.53;;;7.30;99.80;;;;;;5041625;28;20470;-81
2021/04/24 01:01:51;;;;;;;6.40;2.92;;;7.20;99.90;;;;;;5041294;28;20219;-80
2021/04/24 01:04:18;;;;;;;5.65;3.38;;;7.20;99.90;;;;;;5041586;28;20701;-81
2021/04/24 01:06:45;;;;;;;6.78;3.00;;;6.90;99.90;;;;;;5040915;28;20229;-82
2021/04/24 01:09:11;;;;;;;4.18;3.30;;;7.20;99.90;;;;;;5041109;28;20227;-80
2021/04/24 01:11:37;;;;;;;6.30;5.30;;;7.30;99.90;;;;;;5040314;28;20218;-80
2021/04/24 01:14:04;;;;;;;5.38;3.50;;;7.50;99.90;;;;;;5040489;28;20208;-80
2021/04/24 01:16:30;;;;;;;7.38;3.55;;;6.70;99.90;;;;;;5041494;28;20208;-80
2021/04/24 01:18:56;;;;;;;11.20;4.53;;;7.00;99.90;;;;;;5053337;28;20231;-80
2021/04/24 01:21:24;;;;;;;12.15;3.70;;;7.20;99.90;;;;;;5056045;28;20204;-80
2021/04/24 01:23:51;;;;;;;7.45;3.35;;;6.60;99.90;;;;;;5051770;28;20222;-80
2021/04/24 01:26:17;;;;;;;5.72;3.83;;;6.60;99.90;;;;;;5052686;28;20199;-80
2021/04/24 01:28:44;;;;;;;10.10;4.55;;;6.90;99.90;;;;;;5053586;28;20303;-80
2021/04/24 01:31:10;;;;;;;13.77;4.80;;;6.60;99.90;;;;;;5051521;28;20253;-80
2021/04/24 01:33:36;;;;;;;13.38;5.20;;;6.50;99.90;;;;;;5056594;28;20204;-79
2021/04/24 01:36:03;;;;;;;6.45;3.40;;;6.80;99.90;;;;;;5045768;28;20227;-79
2021/04/24 01:38:29;;;;;;;5.78;3.13;;;6.60;99.90;;;;;;5040954;28;20204;-80
2021/04/24 01:40:56;;;;;;;7.53;3.20;;;6.60;99.90;;;;;;5056118;28;20258;-79
2021/04/24 01:43:22;;;;;;;8.57;4.18;;;6.60;99.90;;;;;;5051530;28;20282;-80
2021/04/24 01:45:48;;;;;;;9.73;4.13;;;6.60;99.90;;;;;;5054462;28;20219;-80
2021/04/24 01:48:14;;;;;;;4.25;3.15;;;6.70;99.90;;;;;;5056879;28;20616;-79
2021/04/24 01:50:42;;;;;;;9.90;4.45;;;6.60;99.90;;;;;;5055969;28;20267;-79
2021/04/24 01:53:11;;;;;;;6.45;4.00;;;6.60;99.90;;;;;;5055421;28;20203;-79
2021/04/24 01:55:40;;;;;;;11.25;4.00;;;6.60;99.90;;;;;;5050799;28;20211;-79
2021/04/24 01:58:09;;;;;;;8.95;4.18;;;6.40;99.90;;;;;;5045253;28;20208;-80
2021/04/24 02:00:38;;;;;;;10.32;4.00;;;6.00;99.90;;;;;;5048270;28;20224;-80
2021/04/24 02:03:06;;;;;;;4.03;3.00;;;6.40;99.90;;;;;;5050285;28;20230;-80
2021/04/24 02:05:33;;;;;;;6.82;3.92;;;6.40;99.90;;;;;;5045875;28;20208;-81
2021/04/24 02:08:02;;;;;;;9.60;4.32;;;5.90;99.90;;;;;;5044646;28;20643;-81
2021/04/24 02:10:29;;;;;;;5.88;3.78;;;6.10;99.90;;;;;;5042755;28;20230;-81
2021/04/24 02:12:56;;;;;;;7.53;3.67;;;6.20;99.90;;;;;;5042456;28;20203;-80
2021/04/24 02:15:23;;;;;;;8.10;4.15;;;6.30;99.90;;;;;;5041038;28;20249;-80
2021/04/24 02:17:50;;;;;;;4.72;3.28;;;;;;;;;;5040514;28;20582;-81
2021/04/24 02:20:17;;;;;;;8.70;4.32;;;6.20;99.90;;;;;;5040295;28;20764;-81
2021/04/24 02:22:43;;;;;;;12.85;4.28;;;6.10;99.90;;;;;;5042043;28;20247;-79
2021/04/24 02:25:12;;;;;;;15.13;4.82;;;6.20;99.90;;;;;;5042779;28;20206;-80
2021/04/24 02:27:38;;;;;;;6.43;4.00;;;6.10;99.90;;;;;;5039384;28;20628;-79
2021/04/24 02:30:06;;;;;;;4.88;4.35;;;6.30;99.90;;;;;;5039026;28;20220;-80
2021/04/24 02:32:33;;;;;;;5.65;3.80;;;6.00;99.90;;;;;;5045329;28;20244;-79
2021/04/24 02:35:00;;;;;;;8.15;3.85;;;5.90;99.90;;;;;;5045523;28;20200;-80
2021/04/24 02:37:27;;;;;;;9.43;4.95;;;6.20;99.90;;;;;;5039965;28;20231;-81
2021/04/24 02:39:53;;;;;;;10.55;4.15;;;;;;;;;;5060286;22;20238;-85
2021/04/24 02:42:23;;;;;;;5.97;4.65;;;6.00;99.90;;;;;;5063939;28;20231;-85
2021/04/24 02:44:49;;;;;;;6.13;3.65;;;6.00;99.90;;;;;;5064507;28;20553;-86
2021/04/24 02:47:17;;;;;;;11.13;5.18;;;6.00;99.90;;;;;;5065027;28;20200;-85
2021/04/24 02:49:44;;;;;;;9.10;3.78;;;6.10;99.90;;;;;;5063646;28;20223;-84
2021/04/24 02:52:10;;;;;;;8.55;5.10;;;6.10;99.90;;;;;;5062406;28;20199;-86
2021/04/24 02:54:37;;;;;;;9.05;4.78;;;6.10;99.90;;;;;;5063000;28;20207;-86
2021/04/24 02:57:04;;;;;;;5.95;4.47;;;6.00;99.90;;;;;;5062826;28;20627;-86
2021/04/24 02:59:31;;;;;;;11.30;4.97;;;6.10;99.90;;;;;;5062619;28;20226;-86
2021/04/24 03:01:57;;;;;;;10.00;4.65;;;6.00;99.90;;;;;;5063023;28;20219;-86
2021/04/24 03:04:24;;;;;;;9.40;4.78;;;6.00;99.90;;;;;;5078400;28;20225;-85
2021/04/24 03:06:51;;;;;;;7.63;4.57;;;5.90;99.90;;;;;;5072375;28;20194;-85
2021/04/24 03:09:17;;;;;;;9.35;4.45;;;5.50;99.90;;;;;;5063974;28;20210;-86
2021/04/24 03:11:44;;;;;;;7.60;5.00;;;;;;;;;;5066067;28;20210;-85
2021/04/24 03:14:11;;;;;;;15.60;5.72;;;5.80;99.90;;;;;;5078624;28;20270;-86
2021/04/24 03:16:38;;;;;;;11.38;6.03;;;5.70;99.90;;;;;;5078690;28;20215;-85
2021/04/24 03:19:05;;;;;;;11.68;5.97;;;5.90;99.90;;;;;;5064985;28;20199;-86
2021/04/24 03:21:32;;;;;;;9.00;4.82;;;;;;;;;;5064046;28;20203;-86
2021/04/24 03:23:59;;;;;;;10.80;4.25;;;6.10;99.90;;;;;;5069021;28;20210;-86
2021/04/24 03:26:25;;;;;;;9.13;5.20;;;;;;;;;;5065378;28;20207;-85
2021/04/24 03:28:52;;;;;;;10.20;4.85;;;5.80;99.90;;;;;;5068305;28;20207;-86
2021/04/24 03:31:19;;;;;;;10.60;5.70;;;5.70;99.90;;;;;;5064850;28;20207;-85
2021/04/24 03:33:46;;;;;;;7.13;4.65;;;5.50;99.90;;;;;;5063825;28;20206;-84
2021/04/24 03:36:12;;;;;;;11.05;5.43;;;5.60;99.90;;;;;;5063976;28;20294;-85
2021/04/24 03:38:38;;;;;;;16.17;5.40;;;4.80;99.90;;;;;;5064004;28;20214;-86
2021/04/24 03:41:07;;;;;;;8.80;4.97;;;5.60;99.90;;;;;;5062963;28;20235;-86
2021/04/24 03:43:33;;;;;;;10.77;4.60;;;5.90;99.90;;;;;;5063929;28;20234;-86
2021/04/24 03:45:59;;;;;;;8.10;5.68;;;5.60;99.90;;;;;;5062817;28;20203;-87
2021/04/24 03:48:26;;;;;;;10.65;3.70;;;;;;;;;;5062807;28;20203;-86
2021/04/24 03:50:52;;;;;;;10.10;5.40;;;5.50;99.90;;;;;;5062509;28;20439;-85
2021/04/24 03:53:19;;;;;;;11.38;5.25;;;5.40;99.90;;;;;;5062643;28;20435;-85
2021/04/24 03:55:45;;;;;;;6.95;5.07;;;5.40;99.90;;;;;;5063368;28;20214;-85
2021/04/24 03:58:12;;;;;;;9.20;4.65;;;5.60;99.90;;;;;;5063895;28;20203;-85
2021/04/24 04:00:38;;;;;;;10.90;4.88;;;5.90;99.90;;;;;;5064136;28;20229;-85
2021/04/24 04:03:06;;;;;;;12.90;5.80;;;5.80;99.90;;;;;;5068266;28;20455;-84
2021/04/24 04:05:34;;;;;;;6.95;5.07;;;5.60;99.90;;;;;;5077687;28;20257;-84
2021/04/24 04:08:02;;;;;;;9.10;5.00;;;5.70;99.90;;;;;;5075118;28;20211;-86
2021/04/24 04:10:29;;;;;;;11.32;5.88;;;5.60;99.90;;;;;;5067384;28;20542;-86
2021/04/24 04:12:56;;;;;;;11.23;5.45;;;5.60;99.90;;;;;;5060994;28;20203;-85
2021/04/24 04:15:25;;;;;;;9.88;5.00;;;5.60;99.90;;;;;;5062292;28;20225;-85
2021/04/24 04:17:54;;;;;;;13.52;6.10;;;5.70;99.90;;;;;;5062341;28;20207;-85
2021/04/24 04:20:20;;;;;;;10.05;5.70;;;5.60;99.90;;;;;;5064235;28;20227;-85
2021/04/24 04:22:47;;;;;;;10.48;5.57;;;;;;;;;;5067502;28;20219;-85
2021/04/24 04:25:14;;;;;;;10.30;5.05;;;5.30;99.90;;;;;;5067006;28;20199;-84
2021/04/24 04:27:40;;;;;;;10.38;5.53;;;5.40;99.90;;;;;;5066986;28;20207;-84
2021/04/24 04:30:09;;;;;;;10.35;5.70;;;5.70;99.90;;;;;;5066073;28;20223;-87
2021/04/24 04:32:36;;;;;;;10.98;4.72;;;5.40;99.90;;;;;;5067363;28;20657;-84
2021/04/24 04:35:05;;;;;;;10.52;5.50;;;5.60;99.90;;;;;;5068267;28;20207;-84
2021/04/24 04:37:31;;;;;;;13.20;5.72;;;5.50;99.90;;;;;;5067185;28;20202;-85
2021/04/24 04:39:57;;;;;;;11.95;5.82;;;5.50;99.90;;;;;;5067576;28;20447;-86
2021/04/24 04:42:24;;;;;;;11.82;6.15;;;5.30;99.90;;;;;;5075166;28;20222;-84
2021/04/24 04:44:50;;;;;;;10.00;5.63;;;5.30;99.90;;;;;;5076098;28;20187;-85
2021/04/24 04:47:16;;;;;;;12.93;6.35;;;5.10;99.90;;;;;;5072087;28;20218;-85
2021/04/24 04:49:43;;;;;;;13.35;5.97;;;5.00;99.90;;;;;;5067995;28;20297;-86
2021/04/24 04:52:10;;;;;;;13.55;5.90;;;5.40;99.90;;;;;;5068579;28;20199;-85
2021/04/24 04:54:36;;;;;;;11.13;6.30;;;5.20;99.90;;;;;;5069004;28;20203;-85
2021/04/24 04:57:02;;;;;;;10.20;6.63;;;;;;;;;;5072147;28;20225;-86
2021/04/24 04:59:29;;;;;;;12.02;6.50;;;;;;;;;;5072176;28;20610;-86
2021/04/24 05:01:55;;;;;;;19.48;7.60;;;5.40;99.90;;;;;;5070479;28;20223;-86
2021/04/24 05:04:22;;;;;;;9.32;5.70;;;5.30;99.90;;;;;;5070210;28;20553;-85
2021/04/24 05:06:50;;;;;;;15.32;6.82;;;5.90;99.90;;;;;;5068465;28;20210;-85
2021/04/24 05:09:18;;;;;;;15.90;8.48;;;5.90;99.90;;;;;;5067178;28;20218;-84
2021/04/24 05:11:44;;;;;;;20.23;7.82;;;5.70;99.90;;;;;;5065452;28;20200;-84
2021/04/24 05:14:11;;;;;;;14.63;6.93;;;;;;;;;;5067387;28;20432;-85
2021/04/24 05:16:37;;;;;;;15.55;6.65;;;;;;;;;;5070637;28;20203;-85
2021/04/24 05:19:04;;;;;;;12.32;6.40;;;5.80;99.90;;;;;;5078202;28;20256;-86
2021/04/24 05:21:30;;;;;;;12.68;7.10;;;;;;;;;;5075110;28;20203;-86
2021/04/24 05:23:57;;;;;;;15.60;9.50;;;5.80;99.90;;;;;;5071686;28;20267;-85
2021/04/24 05:26:24;;;;;;;14.55;8.32;;;6.00;99.90;;;;;;5071776;28;20207;-85
2021/04/24 05:28:50;;;;;;;17.52;8.50;;;5.80;99.90;;;;;;5068203;28;20203;-86
2021/04/24 05:31:16;;;;;;;16.95;8.55;;;5.60;99.90;;;;;;5066554;28;20227;-84
2021/04/24 05:33:42;;;;;;;15.65;8.05;;;6.00;99.90;;;;;;5071925;28;20206;-84
2021/04/24 05:36:10;;;;;;;13.15;6.72;;;6.10;99.90;;;;;;5069447;28;20203;-87
2021/04/24 05:38:37;;;;;;;22.45;8.93;;;5.80;99.90;;;;;;5067231;28;20207;-86
2021/04/24 05:41:04;;;;;;;15.60;10.30;;;6.00;99.90;;;;;;5067705;28;20246;-85
2021/04/24 05:43:30;;;;;;;18.77;8.82;;;6.00;99.90;;;;;;5068791;28;20218;-85
2021/04/24 05:45:56;;;;;;;19.30;7.90;;;6.00;99.90;;;;;;5074018;28;20199;-85
2021/04/24 05:48:22;;;;;;;13.93;7.60;;;5.80;99.90;;;;;;5070545;28;20207;-85
2021/04/24 05:50:49;;;;;;;14.30;9.25;;;6.10;99.90;;;;;;5069156;28;20234;-85
2021/04/24 05:53:15;;;;;;;15.75;8.15;;;;;;;;;;5070417;28;20199;-85
2021/04/24 05:55:41;;;;;;;11.88;7.50;;;6.00;99.90;;;;;;5073522;28;20210;-85
2021/04/24 05:58:08;;;;;;;15.00;8.07;;;5.80;99.90;;;;;;5068606;28;20202;-84
2021/04/24 06:00:35;;;;;;;16.70;8.10;;;;;;;;;;5068722;28;20230;-83
2021/04/24 06:03:02;;;;;;;12.90;8.25;;;5.70;99.90;;;;;;5069249;28;20223;-83
2021/04/24 06:05:28;;;;;;;16.02;8.90;;;5.50;99.90;;;;;;5071692;28;20203;-84
2021/04/24 06:07:54;;;;;;;16.88;8.98;;;5.50;99.90;;;;;;5074038;28;20203;-84
2021/04/24 06:10:20;;;;;;;13.77;9.02;;;6.30;99.90;;;;;;5068732;28;20223;-84
2021/04/24 06:12:48;;;;;;;13.15;7.50;;;5.90;99.90;;;;;;5068243;28;20214;-84
2021/04/24 06:15:19;;;;;;;10.73;7.72;;;6.00;99.90;;;;;;5062894;28;20234;-84
2021/04/24 06:17:46;;;;;;;10.50;6.85;;;;;;;;;;5059126;28;20222;-84
2021/04/24 06:20:13;;;;;;;13.60;7.60;;;6.20;99.90;;;;;;5063450;28;20249;-84
2021/04/24 06:22:41;;;;;;;16.10;7.88;;;6.40;99.90;;;;;;5065590;28;20226;-84
2021/04/24 06:25:10;;;;;;;12.50;7.72;;;6.40;99.90;;;;;;5063413;28;20622;-84
2021/04/24 06:27:36;;;;;;;13.18;7.20;;;6.40;99.90;;;;;;5068528;28;20670;-83
2021/04/24 06:30:04;;;;;;;15.30;7.22;;;6.30;99.90;;;;;;5066230;28;20313;-84
2021/04/24 06:32:30;;;;;;;14.85;8.60;;;6.20;99.90;;;;;;5066464;28;20199;-84
2021/04/24 06:34:57;;;;;;;15.13;8.63;;;6.30;99.90;;;;;;5065692;28;20203;-84
2021/04/24 06:37:23;;;;;;;15.63;8.13;;;6.50;99.90;;;;;;5064518;28;20237;-84
2021/04/24 06:39:49;;;;;;;12.57;7.15;;;6.20;99.90;;;;;;5064729;28;20234;-84
2021/04/24 06:42:15;;;;;;;19.55;8.52;;;6.20;99.90;;;;;;5069473;28;20241;-85
2021/04/24 06:44:43;;;;;;;16.23;8.18;;;6.30;99.90;;;;;;5076655;28;20203;-83
2021/04/24 06:47:09;;;;;;;14.63;10.02;;;6.10;99.90;;;;;;5077911;28;20214;-83
2021/04/24 06:49:36;;;;;;;13.05;6.57;;;6.40;99.90;;;;;;5077310;28;20222;-84
2021/04/24 06:52:03;;;;;;;12.23;7.57;;;6.70;99.90;;;;;;5077496;28;20194;-85
2021/04/24 06:54:29;;;;;;;18.17;9.07;;;6.50;99.90;;;;;;5077692;28;20194;-84
2021/04/24 06:56:55;;;;;;;15.63;8.43;;;;;;;;;;5074669;28;20203;-84
2021/04/24 06:59:22;;;;;;;16.40;7.95;;;6.60;99.90;;;;;;5073056;28;20243;-85
2021/04/24 07:01:48;;;;;;;16.17;6.25;;;7.10;99.90;;;;;;5071792;28;20203;-85
2021/04/24 07:04:14;;;;;;;12.18;7.28;;;6.90;99.90;;;;;;5075318;28;20191;-86
2021/04/24 07:06:41;;;;;;;14.82;8.48;;;6.90;99.90;;;;;;5076462;28;20198;-85
2021/04/24 07:09:08;;;;;;;12.35;7.13;;;6.80;99.90;;;;;;5070188;28;20209;-85
2021/04/24 07:11:34;;;;;;;15.32;7.80;;;6.00;99.90;;;;;;5068760;28;20214;-86
2021/04/24 07:14:00;;;;;;;12.18;7.55;;;7.00;99.90;;;;;;5067093;28;20203;-85
2021/04/24 07:16:26;;;;;;;11.30;7.35;;;6.70;99.90;;;;;;5067694;28;20221;-86
2021/04/24 07:18:53;;;;;;;18.83;7.57;;;;;;;;;;5073222;28;20203;-85
2021/04/24 07:21:19;;;;;;;14.32;6.88;;;7.10;99.90;;;;;;5069710;28;20210;-85
2021/04/24 07:23:47;;;;;;;9.93;5.55;;;7.10;99.90;;;;;;5072239;28;20223;-85
2021/04/24 07:26:13;;;;;;;17.92;6.57;;;7.50;99.90;;;;;;5069799;28;20211;-87
2021/04/24 07:28:39;;;;;;;10.30;6.38;;;7.30;99.90;;;;;;5069123;28;20210;-86
2021/04/24 07:31:06;;;;;;;11.20;6.30;;;;;;;;;;5070692;28;20235;-87
2021/04/24 07:33:32;;;;;;;11.05;5.60;;;;;;;;;;5072159;28;20203;-86
2021/04/24 07:36:02;;;;;;;11.32;5.72;;;;;;;;;;5071846;28;20203;-87
2021/04/24 07:38:29;;;;;;;10.35;6.38;;;;;;;;;;5071141;28;20211;-86
2021/04/24 07:40:56;;;;;;;11.95;6.32;;;7.70;99.90;;;;;;5071585;28;20233;-87
2021/04/24 07:43:22;;;;;;;7.78;3.95;;;;;;;;;;5070480;28;20227;-86
2021/04/24 07:45:48;;;;;;;10.85;5.20;;;7.70;99.90;;;;;;5071151;28;20202;-85
2021/04/24 07:48:15;;;;;;;7.28;4.30;;;8.10;99.90;;;;;;5071145;28;20223;-85
2021/04/24 07:50:41;;;;;;;5.97;4.53;;;7.70;99.90;;;;;;5071883;28;20210;-86
2021/04/24 07:53:08;;;;;;;16.55;6.18;;;;;;;;;;5077860;28;20213;-86
2021/04/24 07:55:34;;;;;;;7.57;5.50;;;;;;;;;;5081909;28;20255;-83
2021/04/24 07:58:01;;;;;;;9.30;5.57;;;8.20;99.90;;;;;;5082325;28;20190;-84
2021/04/24 08:00:28;;;;;;;8.90;5.57;;;8.30;99.90;;;;;;5081440;28;20476;-86
2021/04/24 08:02:54;;;;;;;12.17;6.47;;;;;;;;;;5081563;28;20484;-85
2021/04/24 08:05:21;;;;;;;7.47;5.33;;;;;;;;;;5081980;28;20429;-85
2021/04/24 08:07:47;;;;;;;6.67;4.30;;;8.30;99.90;;;;;;5082059;28;20497;-84
2021/04/24 08:10:15;;;;;;;12.00;5.13;;;8.40;99.90;;;;;;5081649;28;20498;-84
2021/04/24 08:12:41;;;;;;;8.17;5.73;;;8.60;99.90;;;;;;5079043;28;20539;-84
2021/04/24 08:15:11;;;;;;;10.50;4.90;;;8.50;99.90;;;;;;5078149;28;20441;-84
2021/04/24 08:17:38;;;;;;;13.10;5.30;;;8.80;99.90;;;;;;5076668;28;20746;-85
2021/04/24 08:20:09;;;;;;;14.03;5.97;;;8.60;99.90;;;;;;5072578;28;20465;-86
2021/04/24 08:22:36;;;;;;;8.93;5.07;;;8.10;99.90;;;;;;5070016;28;20488;-84
2021/04/24 08:25:03;;;;;;;8.50;5.57;;;8.30;99.90;;;;;;5070133;28;20452;-86
2021/04/24 08:27:29;;;;;;;6.20;4.73;;;9.10;99.90;;;;;;5073018;28;20456;-86
2021/04/24 08:29:55;;;;;;;10.17;4.40;;;9.10;99.90;;;;;;5070488;28;20469;-85
2021/04/24 08:32:22;;;;;;;7.00;4.50;;;8.80;99.90;;;;;;5070118;28;20444;-85
2021/04/24 08:34:49;;;;;;;6.03;4.43;;;8.80;99.90;;;;;;5070189;28;20449;-86
2021/04/24 08:37:15;;;;;;;12.60;5.80;;;9.00;99.90;;;;;;5069956;28;20449;-85
2021/04/24 08:39:41;;;;;;;24.20;10.00;;;;;;;;;;5080572;22;20548;-81
2021/04/24 08:42:08;;;;;;;12.93;5.93;;;;;;;;;;5073872;28;20477;-80
2021/04/24 08:44:35;;;;;;;5.33;4.60;;;;;;;;;;5077350;28;20441;-80
2021/04/24 08:47:05;;;;;;;11.20;5.30;;;9.10;99.90;;;;;;5068053;28;20445;-79
2021/04/24 08:49:32;;;;;;;11.30;4.80;;;;;;;;;;5071040;28;20438;-79
2021/04/24 08:51:59;;;;;;;8.80;5.13;;;;;;;;;;5077128;28;21033;-80
2021/04/24 08:54:25;;;;;;;6.70;4.33;;;9.10;99.90;;;;;;5072353;28;20444;-80
2021/04/24 08:56:52;;;;;;;7.43;4.57;;;9.20;99.90;;;;;;5069848;28;20509;-80
2021/04/24 08:59:18;;;;;;;7.90;5.70;;;8.70;99.90;;;;;;5065438;28;20473;-81
2021/04/24 09:01:44;;;;;;;10.37;5.60;;;9.40;99.90;;;;;;5064590;28;20569;-81
2021/04/24 09:04:10;;;;;;;9.50;5.57;;;9.00;99.90;;;;;;5063460;28;20450;-81
2021/04/24 09:06:37;;;;;;;7.00;4.57;;;9.30;99.90;;;;;;5062114;28;20449;-82
2021/04/24 09:09:08;;;;;;;6.13;4.10;;;9.50;99.90;;;;;;5063325;28;20438;-81
2021/04/24 09:11:43;;;;;;;7.80;4.70;;;9.70;99.90;;;;;;5065461;28;20473;-81
2021/04/24 09:14:11;;;;;;;12.70;4.80;;;9.10;99.90;;;;;;5063509;28;20452;-80
2021/04/24 09:16:39;;;;;;;7.43;4.67;;;9.30;99.90;;;;;;5063289;28;20533;-81
2021/04/24 09:19:30;;;;;;;6.40;4.93;;;9.30;99.90;;;;;;5062815;28;20499;-82
2021/04/24 09:22:18;;;;;;;6.73;4.77;;;9.60;99.90;;;;;;5062750;28;20495;-81
2021/04/24 09:24:46;;;;;;;6.70;3.60;;;9.40;99.90;;;;;;5062547;28;20457;-82
2021/04/24 09:27:12;;;;;;;6.70;4.70;;;10.00;99.90;;;;;;5063915;28;20433;-80
2021/04/24 09:29:39;;;;;;;6.63;3.70;;;9.60;99.90;;;;;;5064040;28;20450;-81
2021/04/24 09:32:17;;;;;;;8.47;5.27;;;9.70;99.90;;;;;;5064678;28;20991;-80
2021/04/24 09:34:47;;;;;;;5.13;4.63;;;10.00;99.90;;;;;;5065635;28;20958;-80
2021/04/24 09:37:19;;;;;;;4.63;3.40;;;9.90;99.90;;;;;;5064421;28;20457;-81
2021/04/24 09:39:47;;;;;;;7.50;4.17;;;9.90;99.90;;;;;;5064017;28;20465;-79
2021/04/24 09:42:33;;;;;;;9.17;4.60;;;9.90;99.90;;;;;;5063551;28;20458;-80
2021/04/24 09:45:00;;;;;;;4.43;3.30;;;9.80;99.90;;;;;;5063917;28;20446;-81
2021/04/24 09:47:39;;;;;;;10.13;5.70;;;9.90;99.90;;;;;;5063668;28;20449;-81
2021/04/24 09:50:10;;;;;;;11.00;3.73;;;9.40;99.90;;;;;;5062315;28;20476;-81
2021/04/24 09:52:37;;;;;;;5.33;4.10;;;9.40;99.90;;;;;;5064997;28;20422;-82
2021/04/24 09:55:05;;;;;;;9.80;3.67;;;9.80;99.90;;;;;;5065297;28;20823;-81
2021/04/24 09:57:34;;;;;;;5.40;4.50;;;9.90;99.90;;;;;;5065908;28;20445;-81
2021/04/24 10:00:01;;;;;;;8.67;4.50;;;9.90;99.90;;;;;;5070345;28;20509;-81
2021/04/24 10:02:29;;;;;;;8.20;3.80;;;9.90;99.90;;;;;;5069293;28;21064;-81
2021/04/24 10:05:06;;;;;;;6.17;3.70;;;10.10;99.90;;;;;;5065577;28;20461;-81
2021/04/24 10:07:40;;;;;;;8.80;4.07;;;10.20;99.90;;;;;;5064890;28;20920;-81
2021/04/24 10:10:10;;;;;;;5.07;3.57;;;10.10;99.90;;;;;;5064591;28;20470;-80
2021/04/24 10:12:38;;;;;;;3.07;2.77;;;10.30;99.90;;;;;;5065772;28;20438;-81
2021/04/24 10:15:08;;;;;;;12.63;3.73;;;10.40;99.90;;;;;;5066896;28;20441;-81
2021/04/24 10:17:35;;;;;;;7.30;3.37;;;10.40;99.90;;;;;;5061809;28;20464;-81
2021/04/24 10:20:01;;;;;;;6.77;3.87;;;10.70;99.90;;;;;;5066708;28;20481;-81
2021/04/24 10:22:28;;;;;;;7.03;3.50;;;10.80;99.90;;;;;;5070097;28;20562;-80
2021/04/24 10:24:55;;;;;;;6.93;3.70;;;10.80;99.90;;;;;;5069499;28;20473;-80
2021/04/24 10:27:22;;;;;;;8.10;3.33;;;10.50;99.90;;;;;;5067271;28;20540;-81
2021/04/24 10:29:50;;;;;;;5.27;3.30;;;10.10;99.90;;;;;;5067127;28;20488;-81
2021/04/24 10:32:17;;;;;;;10.63;3.50;;;10.30;99.90;;;;;;5069460;28;20831;-82
2021/04/24 10:34:50;;;;;;;9.70;3.97;;;10.70;99.90;;;;;;5069826;28;20449;-81
2021/04/24 10:37:16;;;;;;;3.97;3.00;;;10.60;99.90;;;;;;5073328;28;20442;-81
2021/04/24 10:39:42;;;;;;;4.77;3.30;;;10.50;99.90;;;;;;5073878;28;20465;-82
2021/04/24 10:42:20;;;;;;;5.30;3.13;;;10.80;99.90;;;;;;5070976;28;20430;-81
2021/04/24 10:44:50;;;;;;;6.53;3.37;;;11.00;99.90;;;;;;5068551;28;20430;-82
2021/04/24 10:47:45;;;;;;;3.97;3.57;;;11.10;99.90;;;;;;5064382;28;20429;-80
2021/04/24 10:50:14;;;;;;;7.63;4.30;;;11.30;99.90;;;;;;5067480;28;20553;-82
2021/04/24 10:52:42;;;;;;;3.40;2.80;;;11.00;99.90;;;;;;5063973;28;21002;-82
2021/04/24 10:55:42;;;;;;;7.27;3.07;;;10.80;99.90;;;;;;5067136;28;20446;-80
2021/04/24 10:58:14;;;;;;;7.77;3.30;;;11.40;99.90;;;;;;5068252;28;20438;-82
2021/04/24 11:00:55;;;;;;;6.80;5.50;;;11.30;99.90;;;;;;5068371;28;20489;-82
2021/04/24 11:03:41;;;;;;;3.20;2.70;;;11.20;99.90;;;;;;5068074;28;20477;-83
2021/04/24 11:06:09;;;;;;;4.90;3.17;;;11.10;99.90;;;;;;5065259;28;20529;-81
2021/04/24 11:08:36;;;;;;;3.70;3.27;;;11.00;99.90;;;;;;5065818;28;20489;-82
2021/04/24 11:11:05;;;;;;;5.93;3.20;;;10.90;99.90;;;;;;5068876;28;20477;-82
2021/04/24 11:13:35;;;;;;;4.63;2.90;;;10.50;99.90;;;;;;5062910;28;20944;-82
2021/04/24 11:16:03;;;;;;;6.70;3.00;;;11.10;99.90;;;;;;5064253;28;20446;-81
2021/04/24 11:18:32;;;;;;;5.70;2.93;;;11.10;99.90;;;;;;5061772;28;20528;-80
2021/04/24 11:21:01;;;;;;;7.77;3.40;;;10.20;99.90;;;;;;5061302;28;20522;-82
2021/04/24 11:23:48;;;;;;;4.00;2.40;;;10.10;99.90;;;;;;5068416;28;20481;-80
2021/04/24 11:26:18;;;;;;;4.70;3.80;;;10.40;99.90;;;;;;5075294;28;20495;-80
2021/04/24 11:29:15;;;;;;;8.60;3.33;;;10.90;99.90;;;;;;5071979;28;20454;-81
2021/04/24 11:32:02;;;;;;;4.10;3.10;;;10.60;99.90;;;;;;5069963;28;20457;-81
2021/04/24 11:34:41;;;;;;;3.90;3.30;;;11.70;99.90;;;;;;5067564;28;20426;-81
2021/04/24 11:37:27;;;;;;;4.20;2.93;;;11.60;99.90;;;;;;5064510;28;20442;-81
2021/04/24 11:40:09;;;;;;;5.10;3.57;;;11.30;99.90;;;;;;5063117;28;20476;-82
2021/04/24 11:42:37;;;;;;;6.90;4.50;;;11.20;99.90;;;;;;5063296;28;20520;-81
2021/04/24 11:45:15;;;;;;;10.53;4.20;;;11.40;99.90;;;;;;5063050;28;20445;-82
2021/04/24 11:47:49;;;;;;;4.53;3.30;;;11.60;99.90;;;;;;5067057;28;20440;-80
2021/04/24 11:50:17;;;;;;;4.83;3.60;;;11.80;99.90;;;;;;5066081;28;21070;-79
2021/04/24 11:52:52;;;;;;;4.00;3.33;;;11.80;99.90;;;;;;5065540;28;20433;-81
2021/04/24 11:55:19;;;;;;;5.80;4.77;;;11.70;99.90;;;;;;5063752;28;20505;-81
2021/04/24 11:57:46;;;;;;;4.30;3.90;;;11.60;99.90;;;;;;5069191;28;20449;-80
2021/04/24 12:00:14;;;;;;;5.10;3.03;;;11.50;99.90;;;;;;5071416;28;20428;-80
2021/04/24 12:02:46;;;;;;;4.47;3.20;;;11.50;99.90;;;;;;5069181;28;20252;-81
2021/04/24 12:05:14;;;;;;;8.47;4.23;;;11.50;99.90;;;;;;5066987;28;20893;-81
2021/04/24 12:07:40;;;;;;;5.80;3.77;;;11.50;99.90;;;;;;5073120;28;20834;-81
2021/04/24 12:10:08;;;;;;;5.43;3.40;;;11.80;99.90;;;;;;5067432;28;20466;-80
2021/04/24 12:12:35;;;;;;;3.70;3.30;;;11.40;99.90;;;;;;5068344;28;20450;-81
2021/04/24 12:15:06;;;;;;;6.40;3.40;;;11.10;99.90;;;;;;5072953;28;20438;-80
2021/04/24 12:17:33;;;;;;;7.65;2.92;;;11.40;99.90;;;;;;5067995;28;20464;-81
2021/04/24 12:20:00;;;;;;;4.60;3.07;;;11.20;99.90;;;;;;5063252;28;20584;-81
2021/04/24 12:22:26;;;;;;;7.97;3.80;;;;;;;;;;5067665;28;20485;-81
2021/04/24 12:25:02;;;;;;;6.25;3.40;;;11.10;99.90;;;;;;5070285;28;20467;-81
2021/04/24 12:27:36;;;;;;;4.63;3.37;;;10.90;99.90;;;;;;5065228;28;20535;-82
2021/04/24 12:30:12;;;;;;;5.47;3.70;;;11.00;99.90;;;;;;5067635;28;20469;-80
2021/04/24 12:32:41;;;;;;;3.33;2.90;;;10.80;99.90;;;;;;5072057;28;20429;-80
2021/04/24 12:35:10;;;;;;;9.63;4.00;;;11.30;99.90;;;;;;5064118;28;20450;-81
2021/04/24 12:37:37;;;;;;;7.30;3.40;;;;;;;;;;5061005;28;20453;-81
2021/04/24 12:40:15;;;;;;;4.40;3.40;;;11.40;99.90;;;;;;5061350;28;20480;-80
2021/04/24 12:42:42;;;;;;;3.67;3.37;;;11.00;99.90;;;;;;5062662;28;20481;-80
2021/04/24 12:45:11;;;;;;;6.83;3.17;;;11.00;99.20;;;;;;5063511;28;20483;-81
2021/04/24 12:47:39;;;;;;;4.67;3.17;;;11.10;98.80;;;;;;5064898;28;20449;-81
2021/04/24 12:50:09;;;;;;;6.67;3.10;;;10.30;99.90;;;;;;5064824;28;20492;-81
2021/04/24 12:52:41;;;;;;;4.60;3.30;;;11.40;99.50;;;;;;5067280;28;20464;-81
2021/04/24 12:55:11;;;;;;;5.27;3.90;;;11.20;98.70;;;;;;5064334;28;20461;-81
2021/04/24 12:57:50;;;;;;;6.80;4.77;;;11.30;98.30;;;;;;5070452;28;20442;-82
2021/04/24 13:00:29;;;;;;;6.67;3.97;;;11.40;99.00;;;;;;5072811;28;20947;-80
2021/04/24 13:03:00;;;;;;;4.40;3.10;;;;;;;;;;5071267;28;20955;-80
2021/04/24 13:05:46;;;;;;;19.53;10.77;;;11.40;99.90;;;;;;5068789;28;20472;-80